Airfield :
LOGIN :

Register | Disclaimer

   EN    FR    IT 

 










Legend :    VFR   Marginal VFR   IFR   Intensive IFR   Very Intensive IFR
Visi :
Ceiling :
>= 8 km
>= 3000ft
5 to 8 km
1000 to 3000 ft
1500m to 5 km
500 to 1000 ft
800 to 1500m
200 to 500 ft
< 800m
< 200 ft
Symbols :   Thunderstorms  Fog  Heavy snow  Heavy precipitations  Wind > 20 kt
SIGMETs :     Misc.  Thunderstorms  Icing  Turbulence  Mountain Waves  Volcanic Ashes







- Airport Elevation : 353 ft
- IATA code : ZAG


LDZA - Zagreb Pleso

CURRENT METAR :
  • 161730Z VRB02KT 9999 FEW040 24/18 Q1010 NOSIG

EXPIRED METARs :
  • 161700Z 12004KT 070V150 9999 FEW030 25/18 Q1010 NOSIG
  • 161630Z 11003KT 080V140 9999 FEW030 24/18 Q1010 TEMPO FM1630 TS FEW040CB
  • 161600Z 10004KT 070V140 9999 FEW030 25/18 Q1010 TEMPO FM1630 TS FEW040CB
  • 161530Z 10004KT 070V140 9999 FEW030 26/18 Q1010 NOSIG
  • 161500Z VRB04KT 9999 FEW030 27/19 Q1011 NOSIG

TAF TAF LDZA
Valid from the 16 at 18:00 until the 17 at 18:00 UTC


161725Z 1618/1718 VRB02KT 9999 FEW040 TX26/1713Z TN17/1703Z
PROB30
TEMPO 1618/1620 TS FEW033CB
TEMPO 1620/1708 RA
PROB30
TEMPO 1700/1706 32012KT TSRA FEW025CB BKN030
PROB30
TEMPO 1715/1718 TSRA SCT025CB
ATIS : +385 1 6-259-214
No reported NOTAMs for that airfield.



MET'MAP, your aeronautical weather chart ! - Copyright ORBIFLY December 2007 - Disclaimer

ORBIFLY MET'MAP TEAM :

Programming & Development : Alexandra Zaïnal
Concept & Development : Baudouin d'Aumeries
Co-Development & Prog : Marc-Olivier Méhu
Technical & hardware support : Manuel Goepfert

Contact : metmap@orbifly.com




SOURCES & CREDITS :

   NOAA